createdAt,value
2022-10-28T00:00:06.689Z,14.4
2022-10-28T00:02:10.249Z,14.4
2022-10-28T00:04:16.836Z,14.4
2022-10-28T00:06:20.188Z,14.5
2022-10-28T00:08:23.656Z,14.2
2022-10-28T00:16:37.539Z,13.7
2022-10-28T00:20:47.605Z,13.7
2022-10-28T00:22:51.086Z,13.6
2022-10-28T00:23:54.357Z,13.5
2022-10-28T00:25:57.838Z,13.5
2022-10-28T00:28:01.330Z,13.8
2022-10-28T00:30:04.816Z,13.8
2022-10-28T00:32:11.388Z,13.7
2022-10-28T00:34:14.854Z,13.7
2022-10-28T00:36:18.310Z,13.9
2022-10-28T00:38:21.765Z,13.8
2022-10-28T00:40:25.198Z,13.6
2022-10-28T00:42:28.716Z,13.6
2022-10-28T00:44:32.200Z,13.4
2022-10-28T00:46:38.929Z,13.6
2022-10-28T00:48:42.273Z,14.4
2022-10-28T00:50:45.795Z,14
2022-10-28T00:52:49.294Z,13.9
2022-10-28T00:54:52.774Z,13.8
2022-10-28T00:56:56.253Z,13.6
2022-10-28T00:58:59.768Z,14
2022-10-28T01:01:06.356Z,13.8
2022-10-28T01:03:09.866Z,14.4
2022-10-28T01:05:13.363Z,14.2
2022-10-28T01:07:16.842Z,14.3
2022-10-28T01:09:20.368Z,14.5
2022-10-28T01:11:23.843Z,14.2
2022-10-28T01:13:27.326Z,14.5
2022-10-28T01:15:33.904Z,13.7
2022-10-28T01:17:37.412Z,14.3
2022-10-28T01:19:40.906Z,14.2
2022-10-28T01:22:03.104Z,13.9
2022-10-28T01:24:06.553Z,13.8
2022-10-28T01:26:10.065Z,13.9
2022-10-28T01:28:16.624Z,13.9
2022-10-28T01:30:20.133Z,14.5
2022-10-28T01:32:23.600Z,14.1
2022-10-28T01:34:27.057Z,13.9
2022-10-28T01:36:30.557Z,14.2
2022-10-28T01:38:34.024Z,13.9
2022-10-28T01:40:37.582Z,14.1
2022-10-28T01:42:44.120Z,14
2022-10-28T01:44:47.635Z,14.1
2022-10-28T01:46:51.168Z,13.8
2022-10-28T01:48:54.634Z,14
2022-10-28T01:50:58.060Z,14.4
2022-10-28T01:53:01.575Z,14.1
2022-10-28T01:55:05.048Z,13.9
2022-10-28T01:57:11.591Z,14.2
2022-10-28T01:59:15.066Z,14
2022-10-28T02:01:18.640Z,14.2
2022-10-28T02:03:22.021Z,13.9
2022-10-28T02:05:25.482Z,14
2022-10-28T02:07:28.973Z,13.7
2022-10-28T02:09:32.504Z,13.7
2022-10-28T02:15:46.014Z,14.3
2022-10-28T02:20:56.290Z,13.9
2022-10-28T02:22:59.778Z,14
2022-10-28T02:25:06.372Z,14.2
2022-10-28T02:27:09.890Z,14.2
2022-10-28T02:29:13.343Z,13.6
2022-10-28T02:31:16.861Z,13.6
2022-10-28T02:33:20.327Z,13.5
2022-10-28T02:37:27.320Z,13.8
2022-10-28T02:39:33.899Z,13.9
2022-10-28T02:41:37.355Z,13.8
2022-10-28T02:43:40.870Z,14
2022-10-28T02:45:44.361Z,13.6
2022-10-28T02:47:47.859Z,13.8
2022-10-28T02:49:51.340Z,13.6
2022-10-28T02:51:54.805Z,13.5
2022-10-28T02:54:01.457Z,13.4
2022-10-28T02:56:04.928Z,13.4
2022-10-28T02:58:08.442Z,14
2022-10-28T03:00:11.956Z,13.6
2022-10-28T03:02:15.490Z,13.6
2022-10-28T03:04:18.944Z,14
2022-10-28T03:06:22.522Z,14
2022-10-28T03:08:29.064Z,14.1
2022-10-28T03:10:32.533Z,13.5
2022-10-28T03:12:36.054Z,13.7
2022-10-28T03:13:39.332Z,13.4
2022-10-28T03:15:43.017Z,13.5
2022-10-28T03:17:46.319Z,14.1
2022-10-28T03:19:49.820Z,13.7
2022-10-28T03:21:56.410Z,13.4
2022-10-28T03:23:59.898Z,14.1
2022-10-28T03:26:03.535Z,14
2022-10-28T03:28:06.907Z,13.5
2022-10-28T03:30:10.397Z,13.8
2022-10-28T03:32:14.016Z,13.8
2022-10-28T03:34:17.405Z,13.7
2022-10-28T03:36:23.985Z,14
2022-10-28T03:38:27.495Z,13.4
2022-10-28T03:40:31.059Z,13.9
2022-10-28T03:42:36.449Z,13.7
2022-10-28T03:44:38.047Z,13.8
2022-10-28T03:46:41.519Z,13.6
2022-10-28T03:48:45.017Z,14.1
2022-10-28T03:50:51.599Z,14
2022-10-28T03:57:03.627Z,13.9
2022-10-28T03:59:07.133Z,13.5
2022-10-28T04:03:14.088Z,13.6
2022-10-28T04:05:20.691Z,14.3
2022-10-28T04:07:24.177Z,13.7
2022-10-28T04:09:27.647Z,13.6
2022-10-28T04:10:30.962Z,13.9
2022-10-28T04:12:34.509Z,13.7
2022-10-28T04:14:37.970Z,13.8
2022-10-28T04:16:41.479Z,14.1
2022-10-28T04:18:48.057Z,14.2
2022-10-28T04:20:51.526Z,13.9
2022-10-28T04:22:57.171Z,13.8
2022-10-28T04:24:58.512Z,13.8
2022-10-28T04:27:01.995Z,13.9
2022-10-28T04:31:08.951Z,14.4
2022-10-28T04:33:15.512Z,14.5
2022-10-28T04:35:19.009Z,14
2022-10-28T04:37:22.508Z,14.5
2022-10-28T04:39:26.013Z,14.2
2022-10-28T04:41:29.506Z,14.2
2022-10-28T04:43:32.969Z,14.3
2022-10-28T04:45:36.454Z,14.2
2022-10-28T04:47:43.036Z,13.9
2022-10-28T04:49:46.530Z,14.1
2022-10-28T04:51:50.119Z,14.4
2022-10-28T04:53:53.547Z,14.6
2022-10-28T04:55:57.045Z,14.4
2022-10-28T04:58:00.485Z,14
2022-10-28T05:00:04.019Z,14.4
2022-10-28T05:02:10.726Z,14.1
2022-10-28T05:04:14.075Z,14.3
2022-10-28T05:06:17.579Z,14
2022-10-28T05:08:41.602Z,13.9
2022-10-28T05:10:45.097Z,14.3
2022-10-28T05:12:48.601Z,14.3
2022-10-28T05:14:55.222Z,13.8
2022-10-28T05:16:58.685Z,14.3
2022-10-28T05:19:02.183Z,14.1
2022-10-28T05:21:05.647Z,13.9
2022-10-28T05:23:09.132Z,14.4
2022-10-28T05:25:12.612Z,14.1
2022-10-28T05:27:16.112Z,14.3
2022-10-28T05:29:22.694Z,14
2022-10-28T05:31:26.226Z,14.1
2022-10-28T05:33:29.651Z,14.2
2022-10-28T05:35:33.157Z,14
2022-10-28T05:37:36.639Z,14.4
2022-10-28T05:39:40.125Z,14.1
2022-10-28T05:41:43.598Z,14.1
2022-10-28T05:43:50.172Z,14.4
2022-10-28T05:47:57.271Z,14.3
2022-10-28T05:50:00.650Z,13.9
2022-10-28T05:52:04.169Z,14
2022-10-28T05:54:07.612Z,14.4
2022-10-28T05:58:17.723Z,14.2
2022-10-28T06:00:21.186Z,14
2022-10-28T06:02:24.687Z,14.1
2022-10-28T06:03:30.962Z,13.8
2022-10-28T06:05:31.538Z,14.1
2022-10-28T06:07:34.938Z,14.2
2022-10-28T06:09:38.400Z,14
2022-10-28T06:11:43.393Z,14.2
2022-10-28T06:13:46.913Z,14
2022-10-28T06:15:50.397Z,14.1
2022-10-28T06:17:53.863Z,14
2022-10-28T06:19:57.376Z,13.9
2022-10-28T06:22:00.845Z,13.9
2022-10-28T06:24:05.759Z,14.1
2022-10-28T06:26:10.933Z,14
2022-10-28T06:28:14.406Z,14
2022-10-28T06:30:17.897Z,14
2022-10-28T06:32:21.387Z,14
2022-10-28T06:34:24.903Z,14
2022-10-28T06:36:28.361Z,14
2022-10-28T06:38:31.857Z,14
2022-10-28T06:40:38.438Z,14
2022-10-28T06:42:41.926Z,14
2022-10-28T06:44:45.437Z,14
2022-10-28T06:46:50.448Z,14
2022-10-28T06:48:53.923Z,14
2022-10-28T06:50:57.428Z,14
2022-10-28T06:53:00.913Z,14
2022-10-28T06:55:07.489Z,14.1
2022-10-28T06:57:10.998Z,14.1
2022-10-28T06:59:14.504Z,14.1
2022-10-28T07:00:17.882Z,14.2
2022-10-28T07:06:28.273Z,14.4
2022-10-28T07:16:48.824Z,14.9
2022-10-28T07:18:52.353Z,14.9
2022-10-28T07:20:55.895Z,15.2
2022-10-28T07:23:02.440Z,15.5
2022-10-28T07:25:05.926Z,15.6
2022-10-28T07:27:09.406Z,15.7
2022-10-28T07:29:12.918Z,15.8
2022-10-28T07:31:16.429Z,16.1
2022-10-28T07:33:19.872Z,16.3
2022-10-28T07:37:29.851Z,16.1
2022-10-28T07:41:36.816Z,16.1
2022-10-28T07:43:40.298Z,16
2022-10-28T07:47:47.219Z,15.9
2022-10-28T07:49:50.677Z,15.9
2022-10-28T07:51:57.207Z,16.1
2022-10-28T07:54:00.710Z,16.2
2022-10-28T07:56:04.183Z,16.5
2022-10-28T07:57:07.469Z,16.6
2022-10-28T07:59:10.920Z,16.7
2022-10-28T08:01:14.531Z,17
2022-10-28T08:03:17.828Z,17.3
2022-10-28T08:05:24.391Z,18.3
2022-10-28T08:07:27.818Z,18.6
2022-10-28T08:09:31.262Z,18.8
2022-10-28T08:11:34.747Z,19.2
2022-10-28T08:13:40.168Z,19.5
2022-10-28T08:15:41.611Z,19.5
2022-10-28T08:17:45.041Z,19.8
2022-10-28T08:19:51.562Z,20.2
2022-10-28T08:21:54.921Z,19.9
2022-10-28T08:23:58.338Z,19.3
2022-10-28T08:26:01.760Z,19.1
2022-10-28T08:28:05.233Z,19
2022-10-28T08:30:08.605Z,18.9
2022-10-28T08:32:12.044Z,18.8
2022-10-28T08:34:18.546Z,19.6
2022-10-28T08:36:21.966Z,19.7
2022-10-28T08:38:25.395Z,20
2022-10-28T08:40:28.782Z,19.5
2022-10-28T08:42:32.175Z,19.1
2022-10-28T08:44:35.504Z,18.9
2022-10-28T08:46:38.891Z,19
2022-10-28T08:48:45.198Z,19.1
2022-10-28T08:50:48.559Z,19
2022-10-28T08:55:15.843Z,18.7
2022-10-28T08:57:19.224Z,18.7
2022-10-28T08:59:22.614Z,18.9
2022-10-28T09:01:29.365Z,20.1
2022-10-28T09:03:34.367Z,20.7
2022-10-28T09:05:35.764Z,21.7
2022-10-28T09:07:39.032Z,22.4
2022-10-28T09:09:42.376Z,23
2022-10-28T09:11:45.622Z,22.9
2022-10-28T09:13:48.896Z,22.3
2022-10-28T09:17:58.414Z,21.5
2022-10-28T09:24:08.055Z,20.1
2022-10-28T09:26:11.279Z,20.2
2022-10-28T09:28:14.487Z,20.1
2022-10-28T09:30:20.670Z,20.3
2022-10-28T09:32:23.896Z,20.6
2022-10-28T09:34:27.133Z,21.1
2022-10-28T09:36:30.329Z,20.9
2022-10-28T09:38:33.543Z,20.6
2022-10-28T09:40:36.730Z,20.5
2022-10-28T09:44:46.181Z,20.6
2022-10-28T09:46:49.398Z,20.7
2022-10-28T09:48:54.106Z,20.8
2022-10-28T09:49:57.184Z,21.1
2022-10-28T09:52:00.369Z,21.3
2022-10-28T09:54:03.539Z,21.1
2022-10-28T10:00:16.158Z,21
2022-10-28T10:02:19.375Z,21.1
2022-10-28T10:06:25.648Z,21.2
2022-10-28T10:08:28.872Z,21.5
2022-10-28T10:10:32.012Z,21.7
2022-10-28T10:12:38.202Z,21.6
2022-10-28T10:14:41.388Z,21.6
2022-10-28T10:16:44.515Z,21.3
2022-10-28T10:18:47.694Z,21.2
2022-10-28T10:24:57.153Z,21.1
2022-10-28T10:27:03.333Z,21.3
2022-10-28T10:29:06.493Z,21.3
2022-10-28T10:31:09.626Z,21.3
2022-10-28T10:33:12.784Z,21.8
2022-10-28T10:35:15.949Z,22.4
2022-10-28T10:37:19.080Z,22.5
2022-10-28T10:39:22.221Z,22.7
2022-10-28T10:43:31.484Z,22.9
2022-10-28T10:46:37.702Z,22.4
2022-10-28T10:48:40.839Z,22.5
2022-10-28T10:50:43.961Z,22.6
2022-10-28T10:52:47.062Z,22.9
2022-10-28T10:54:53.209Z,23.2
2022-10-28T10:58:59.396Z,23.7
2022-10-28T11:01:02.502Z,23.1
2022-10-28T11:03:05.618Z,22.8
2022-10-28T11:05:08.668Z,22.4
2022-10-28T11:07:11.712Z,22.3
2022-10-28T11:09:17.826Z,22.8
2022-10-28T11:11:20.881Z,23.1
2022-10-28T11:13:23.962Z,23.2
2022-10-28T11:15:27.008Z,22.8
2022-10-28T11:17:30.165Z,22.6
2022-10-28T11:19:33.156Z,22.5
2022-10-28T11:21:36.221Z,22.4
2022-10-28T11:23:42.323Z,22.6
2022-10-28T11:25:45.364Z,22.6
2022-10-28T11:27:51.724Z,22.2
2022-10-28T11:29:51.524Z,22.1
2022-10-28T11:31:54.579Z,22.1
2022-10-28T11:33:57.664Z,22.1
2022-10-28T11:36:00.730Z,22
2022-10-28T11:40:09.913Z,21.8
2022-10-28T11:42:12.972Z,22
2022-10-28T11:43:16.022Z,21.9
2022-10-28T11:45:19.092Z,21.9
2022-10-28T11:47:22.169Z,21.8
2022-10-28T11:49:25.290Z,21.8
2022-10-28T11:51:31.413Z,21.9
2022-10-28T11:53:34.485Z,21.9
2022-10-28T11:55:37.614Z,22
2022-10-28T11:57:40.675Z,22
2022-10-28T11:59:43.771Z,22
2022-10-28T12:01:47.043Z,22
2022-10-28T12:03:49.990Z,22
2022-10-28T12:05:56.145Z,22.1
2022-10-28T12:07:59.247Z,22.1
2022-10-28T12:10:02.524Z,22.1
2022-10-28T12:12:05.640Z,22.1
2022-10-28T12:14:08.758Z,22.2
2022-10-28T12:16:11.840Z,22.3
2022-10-28T12:18:14.968Z,22.4
2022-10-28T12:20:21.120Z,22.5
2022-10-28T12:22:24.215Z,22.5
2022-10-28T12:24:27.484Z,22.5
2022-10-28T12:26:30.455Z,22.5
2022-10-28T12:28:33.567Z,22.3
2022-10-28T12:30:36.664Z,22.2
2022-10-28T12:32:39.763Z,22.3
2022-10-28T12:34:45.930Z,22.2
2022-10-28T12:36:49.061Z,22.2
2022-10-28T12:38:52.158Z,22.2
2022-10-28T12:41:15.931Z,22.3
2022-10-28T12:43:19.080Z,22.3
2022-10-28T12:45:22.142Z,22.5
2022-10-28T12:47:28.303Z,22.3
2022-10-28T12:49:31.429Z,22.3
2022-10-28T12:51:34.535Z,22.4
2022-10-28T12:53:37.616Z,22.4
2022-10-28T12:55:40.870Z,22.3
2022-10-28T12:57:43.859Z,22.3
2022-10-28T12:59:46.940Z,22.2
2022-10-28T13:01:53.230Z,22.2
2022-10-28T13:03:56.213Z,22.2
2022-10-28T13:05:59.330Z,22.1
2022-10-28T13:10:05.565Z,22
2022-10-28T13:12:08.669Z,22
2022-10-28T13:14:11.937Z,22
2022-10-28T13:16:17.940Z,22
2022-10-28T13:18:21.036Z,22
2022-10-28T13:20:24.154Z,21.9
2022-10-28T13:24:30.390Z,21.9
2022-10-28T13:26:33.553Z,21.9
2022-10-28T13:28:36.649Z,21.8
2022-10-28T13:30:42.777Z,21.7
2022-10-28T13:32:45.912Z,21.7
2022-10-28T13:34:49.134Z,21.7
2022-10-28T13:37:55.606Z,21.6
2022-10-28T13:39:58.372Z,21.6
2022-10-28T13:44:08.535Z,21.5
2022-10-28T13:46:11.681Z,21.5
2022-10-28T13:48:14.768Z,21.4
2022-10-28T13:50:17.937Z,21.3
2022-10-28T13:52:21.085Z,21.3
2022-10-28T13:56:27.374Z,21.1
2022-10-28T13:58:33.516Z,21.1
2022-10-28T14:02:40.089Z,21.1
2022-10-28T14:04:42.972Z,21.1
2022-10-28T14:08:49.293Z,21.1
2022-10-28T14:12:59.148Z,21.1
2022-10-28T14:19:08.099Z,20.9
2022-10-28T14:25:19.917Z,20.9
2022-10-28T14:29:26.953Z,20.8
2022-10-28T14:31:30.257Z,20.8
2022-10-28T14:32:33.329Z,20.7
2022-10-28T14:34:36.513Z,20.7
2022-10-28T14:36:39.694Z,20.7
2022-10-28T14:38:42.857Z,20.7
2022-10-28T14:40:49.077Z,20.7
2022-10-28T14:42:52.245Z,20.7
2022-10-28T14:44:55.425Z,20.7
2022-10-28T14:46:58.630Z,20.6
2022-10-28T14:49:01.806Z,20.6
2022-10-28T14:51:04.987Z,20.5
2022-10-28T14:53:08.185Z,20.5
2022-10-28T14:55:14.392Z,20.4
2022-10-28T14:57:17.591Z,20.4
2022-10-28T14:59:20.792Z,20.4
2022-10-28T15:01:24.123Z,20.4
2022-10-28T15:03:27.178Z,20.2
2022-10-28T15:05:30.379Z,20.2
2022-10-28T15:07:37.874Z,20.2
2022-10-28T15:09:39.788Z,20.1
2022-10-28T15:15:49.374Z,20
2022-10-28T15:21:59.374Z,19.8
2022-10-28T15:24:05.220Z,19.8
2022-10-28T15:26:08.402Z,19.8
2022-10-28T15:28:11.612Z,19.7
2022-10-28T15:29:14.729Z,19.7
2022-10-28T15:31:17.941Z,19.7
2022-10-28T15:33:21.172Z,19.6
2022-10-28T15:35:24.393Z,19.6
2022-10-28T15:37:30.779Z,19.5
2022-10-28T15:39:33.871Z,19.5
2022-10-28T15:41:37.076Z,19.5
2022-10-28T15:43:41.862Z,19.5
2022-10-28T15:45:45.036Z,19.5
2022-10-28T15:47:48.240Z,19.5
2022-10-28T15:49:51.483Z,19.5
2022-10-28T15:51:57.722Z,19.4
2022-10-28T15:54:00.938Z,19.3
2022-10-28T15:56:07.541Z,19.3
2022-10-28T15:58:07.479Z,19.3
2022-10-28T16:00:10.736Z,19.2
2022-10-28T16:02:14.199Z,19.1
2022-10-28T16:04:17.307Z,19.1
2022-10-28T16:06:23.688Z,19.1
2022-10-28T16:08:26.918Z,19.1
2022-10-28T16:10:30.262Z,19.1
2022-10-28T16:12:33.611Z,19.1
2022-10-28T16:14:36.854Z,19.1
2022-10-28T16:16:40.207Z,19
2022-10-28T16:20:49.912Z,18.9
2022-10-28T16:22:53.144Z,19
2022-10-28T16:24:56.488Z,19
2022-10-28T16:27:20.293Z,19
2022-10-28T16:29:23.998Z,19
2022-10-28T16:31:27.355Z,18.9
2022-10-28T16:33:33.661Z,18.9
2022-10-28T16:35:36.870Z,18.9
2022-10-28T16:37:44.479Z,19
2022-10-28T16:39:43.488Z,19
2022-10-28T16:41:46.747Z,18.8
2022-10-28T16:43:49.968Z,18.9
2022-10-28T16:45:53.234Z,18.9
2022-10-28T16:47:59.478Z,18.7
2022-10-28T16:50:02.782Z,18.6
2022-10-28T16:52:06.054Z,18.7
2022-10-28T16:54:09.303Z,18.6
2022-10-28T16:56:14.011Z,18.7
2022-10-28T16:58:15.788Z,18.7
2022-10-28T17:00:19.017Z,18.6
2022-10-28T17:02:25.406Z,18.7
2022-10-28T17:04:28.545Z,18.6
2022-10-28T17:10:38.207Z,18.6
2022-10-28T17:12:41.451Z,18.6
2022-10-28T17:14:44.796Z,18.7
2022-10-28T17:20:57.575Z,18.6
2022-10-28T17:22:00.735Z,18.6
2022-10-28T17:24:03.954Z,18.7
2022-10-28T17:26:07.303Z,18.7
2022-10-28T17:28:10.519Z,18.8
2022-10-28T17:30:17.111Z,18.6
2022-10-28T17:32:20.034Z,18.6
2022-10-28T17:34:23.224Z,18.6
2022-10-28T17:36:26.468Z,18.7
2022-10-28T17:38:29.708Z,18.7
2022-10-28T17:40:32.988Z,18.7
2022-10-28T17:42:36.192Z,18.7
2022-10-28T17:44:42.548Z,18.5
2022-10-28T17:46:45.844Z,18.4
2022-10-28T17:48:49.124Z,18.4
2022-10-28T17:50:52.458Z,18.3
2022-10-28T17:52:56.076Z,18.4
2022-10-28T17:54:59.024Z,18.4
2022-10-28T17:57:02.237Z,18.2
2022-10-28T17:59:08.662Z,18.2
2022-10-28T18:01:12.125Z,18.4
2022-10-28T18:05:18.697Z,18.3
2022-10-28T18:11:28.652Z,18.1
2022-10-28T18:13:35.032Z,18.1
2022-10-28T18:15:38.297Z,18
2022-10-28T18:17:41.529Z,18.1
2022-10-28T18:18:44.689Z,17.9
2022-10-28T18:20:48.033Z,17.8
2022-10-28T18:22:51.411Z,17.8
2022-10-28T18:24:54.765Z,18
2022-10-28T18:27:01.142Z,17.7
2022-10-28T18:29:04.538Z,17.9
2022-10-28T18:31:07.907Z,17.6
2022-10-28T18:33:11.256Z,17.6
2022-10-28T18:35:14.663Z,17.6
2022-10-28T18:37:18.010Z,17.7
2022-10-28T18:39:21.371Z,17.6
2022-10-28T18:41:27.882Z,17.4
2022-10-28T18:43:31.267Z,17.7
2022-10-28T18:45:34.797Z,17.4
2022-10-28T18:47:38.025Z,17.7
2022-10-28T18:49:41.433Z,17.5
2022-10-28T18:51:44.836Z,17.4
2022-10-28T18:53:48.184Z,17.4
2022-10-28T18:55:54.624Z,17.4
2022-10-28T18:57:57.937Z,17.4
2022-10-28T19:00:18.369Z,17.5
2022-10-28T19:04:08.059Z,17.3
2022-10-28T19:06:11.383Z,17.2
2022-10-28T19:10:21.285Z,17.1
2022-10-28T19:12:24.686Z,17
2022-10-28T19:14:28.107Z,17.2
2022-10-28T19:15:31.357Z,17.1
2022-10-28T19:17:34.775Z,16.9
2022-10-28T19:19:39.321Z,16.9
2022-10-28T19:21:41.487Z,16.8
2022-10-28T19:23:48.009Z,16.7
2022-10-28T19:25:51.545Z,16.6
2022-10-28T19:27:54.797Z,16.8
2022-10-28T19:29:58.228Z,16.4
2022-10-28T19:32:01.668Z,16.2
2022-10-28T19:34:05.097Z,16.4
2022-10-28T19:36:08.503Z,16.4
2022-10-28T19:38:15.026Z,16.4
2022-10-28T19:40:18.435Z,16.2
2022-10-28T19:42:21.842Z,16.3
2022-10-28T19:44:25.239Z,16.5
2022-10-28T19:46:28.674Z,16.2
2022-10-28T19:48:32.101Z,16.5
2022-10-28T19:52:42.063Z,16.3
2022-10-28T19:54:45.480Z,16.2
2022-10-28T19:56:48.929Z,16
2022-10-28T19:58:52.369Z,16.1
2022-10-28T20:00:55.818Z,15.6
2022-10-28T20:02:59.258Z,15.9
2022-10-28T20:05:02.688Z,16
2022-10-28T20:07:09.224Z,15.9
2022-10-28T20:09:12.637Z,15.6
2022-10-28T20:11:19.996Z,15.7
2022-10-28T20:15:38.653Z,15.8
2022-10-28T20:17:42.087Z,15.7
2022-10-28T20:19:48.620Z,16.3
2022-10-28T20:21:52.065Z,15.9
2022-10-28T20:23:55.818Z,16.2
2022-10-28T20:25:58.923Z,16.2
2022-10-28T20:28:02.383Z,16
2022-10-28T20:30:05.834Z,16.2
2022-10-28T20:32:09.300Z,16.1
2022-10-28T20:34:15.773Z,16.1
2022-10-28T20:36:19.211Z,16.1
2022-10-28T20:38:22.644Z,16
2022-10-28T20:42:29.477Z,16.2
2022-10-28T20:44:32.910Z,15.8
2022-10-28T20:46:36.348Z,16
2022-10-28T20:48:42.877Z,15.9
2022-10-28T20:50:46.283Z,15.8
2022-10-28T20:52:49.778Z,15.7
2022-10-28T20:54:53.201Z,16
2022-10-28T20:56:56.634Z,16
2022-10-28T20:59:00.067Z,15.7
2022-10-28T21:01:03.482Z,15.8
2022-10-28T21:03:10.125Z,15.5
2022-10-28T21:05:13.478Z,15.8
2022-10-28T21:07:16.923Z,15.4
2022-10-28T21:10:23.642Z,15.3
2022-10-28T21:14:30.839Z,15.5
2022-10-28T21:16:37.373Z,15.3
2022-10-28T21:18:40.838Z,15.1
2022-10-28T21:20:44.289Z,15
2022-10-28T21:22:47.741Z,15.2
2022-10-28T21:24:51.218Z,14.9
2022-10-28T21:26:54.690Z,15.2
2022-10-28T21:28:58.122Z,14.9
2022-10-28T21:35:11.596Z,15.1
2022-10-28T21:37:15.050Z,14.7
2022-10-28T21:41:23.502Z,14.9
2022-10-28T21:43:26.976Z,14.9
2022-10-28T21:45:33.583Z,15
2022-10-28T21:47:37.014Z,15.1
2022-10-28T21:49:40.473Z,15
2022-10-28T21:51:43.950Z,14.8
2022-10-28T21:53:47.401Z,14.9
2022-10-28T21:55:51.368Z,14.7
2022-10-28T21:57:54.786Z,14.8
2022-10-28T22:00:01.076Z,14.5
2022-10-28T22:02:04.501Z,14.6
2022-10-28T22:04:07.869Z,14.3
2022-10-28T22:05:11.167Z,14.5
2022-10-28T22:09:18.122Z,14.3
2022-10-28T22:13:28.171Z,14.6
2022-10-28T22:15:31.636Z,14.6
2022-10-28T22:19:38.597Z,14.6
2022-10-28T22:29:59.078Z,14
2022-10-28T22:34:06.063Z,14
2022-10-28T22:36:09.527Z,14.2
2022-10-28T22:40:16.478Z,14
2022-10-28T22:42:23.055Z,13.9
2022-10-28T22:44:26.560Z,13.8
2022-10-28T22:46:30.070Z,14.1
2022-10-28T22:48:33.546Z,13.8
2022-10-28T22:50:37.038Z,14.3
2022-10-28T22:52:40.520Z,14.3
2022-10-28T22:54:44.014Z,13.8
2022-10-28T22:56:50.555Z,14.1
2022-10-28T22:58:54.050Z,14.4
2022-10-28T23:00:57.524Z,13.9
2022-10-28T23:02:00.904Z,14.3
2022-10-28T23:04:04.284Z,14
2022-10-28T23:06:07.785Z,14
2022-10-28T23:08:11.295Z,13.7
2022-10-28T23:10:17.848Z,14.3
2022-10-28T23:12:21.327Z,13.9
2022-10-28T23:14:24.805Z,14.4
2022-10-28T23:16:28.304Z,13.7
2022-10-28T23:18:31.789Z,13.8
2022-10-28T23:20:35.279Z,14.1
2022-10-28T23:22:38.737Z,13.8
2022-10-28T23:24:45.293Z,14.2
2022-10-28T23:26:48.862Z,13.9
2022-10-28T23:28:52.250Z,14.3
2022-10-28T23:30:55.765Z,14.2
2022-10-28T23:32:59.230Z,13.9
2022-10-28T23:35:02.734Z,13.7
2022-10-28T23:39:12.809Z,13.5
2022-10-28T23:43:19.742Z,14.1
2022-10-28T23:45:23.232Z,14.1
2022-10-28T23:47:26.699Z,13.8
2022-10-28T23:49:30.211Z,13.6
2022-10-28T23:51:33.731Z,14
2022-10-28T23:53:40.321Z,13.9
2022-10-28T23:55:43.797Z,13.6
